sensor_id;sensor_type;location;lat;lon;timestamp;P1;durP1;ratioP1;P2;durP2;ratioP2
71969;SDS011;59838;52.152;5.436;2023-05-17T00:02:18;11.20;;;1.70;;
71969;SDS011;59838;52.152;5.436;2023-05-17T00:04:44;7.80;;;1.40;;
71969;SDS011;59838;52.152;5.436;2023-05-17T00:07:11;6.82;;;1.30;;
71969;SDS011;59838;52.152;5.436;2023-05-17T00:09:37;7.28;;;1.88;;
71969;SDS011;59838;52.152;5.436;2023-05-17T00:12:04;9.98;;;1.50;;
71969;SDS011;59838;52.152;5.436;2023-05-17T00:14:31;12.65;;;1.30;;
71969;SDS011;59838;52.152;5.436;2023-05-17T00:16:57;6.63;;;1.90;;
71969;SDS011;59838;52.152;5.436;2023-05-17T00:19:24;5.88;;;1.38;;
71969;SDS011;59838;52.152;5.436;2023-05-17T00:21:50;6.30;;;1.50;;
71969;SDS011;59838;52.152;5.436;2023-05-17T00:24:17;11.07;;;1.77;;
71969;SDS011;59838;52.152;5.436;2023-05-17T00:26:44;8.25;;;1.63;;
71969;SDS011;59838;52.152;5.436;2023-05-17T00:29:11;14.13;;;1.77;;
71969;SDS011;59838;52.152;5.436;2023-05-17T00:31:37;6.00;;;1.35;;
71969;SDS011;59838;52.152;5.436;2023-05-17T00:34:04;8.68;;;1.80;;
71969;SDS011;59838;52.152;5.436;2023-05-17T00:36:31;3.92;;;1.50;;
71969;SDS011;59838;52.152;5.436;2023-05-17T00:38:57;13.77;;;2.10;;
71969;SDS011;59838;52.152;5.436;2023-05-17T00:41:23;7.07;;;1.83;;
71969;SDS011;59838;52.152;5.436;2023-05-17T00:43:50;6.18;;;1.88;;
71969;SDS011;59838;52.152;5.436;2023-05-17T00:46:17;12.43;;;2.30;;
71969;SDS011;59838;52.152;5.436;2023-05-17T00:48:43;10.20;;;1.95;;
71969;SDS011;59838;52.152;5.436;2023-05-17T00:51:10;7.65;;;2.00;;
71969;SDS011;59838;52.152;5.436;2023-05-17T00:53:37;8.67;;;1.77;;
71969;SDS011;59838;52.152;5.436;2023-05-17T00:56:04;9.13;;;2.42;;
71969;SDS011;59838;52.152;5.436;2023-05-17T00:58:31;16.77;;;2.50;;
71969;SDS011;59838;52.152;5.436;2023-05-17T01:00:58;8.63;;;1.70;;
71969;SDS011;59838;52.152;5.436;2023-05-17T01:03:26;9.60;;;2.05;;
71969;SDS011;59838;52.152;5.436;2023-05-17T01:05:53;5.13;;;1.57;;
71969;SDS011;59838;52.152;5.436;2023-05-17T01:08:20;6.78;;;1.80;;
71969;SDS011;59838;52.152;5.436;2023-05-17T01:13:39;8.35;;;1.60;;
71969;SDS011;59838;52.152;5.436;2023-05-17T01:16:20;7.85;;;1.83;;
71969;SDS011;59838;52.152;5.436;2023-05-17T01:18:55;10.73;;;1.57;;
71969;SDS011;59838;52.152;5.436;2023-05-17T01:24:36;9.75;;;2.33;;
71969;SDS011;59838;52.152;5.436;2023-05-17T01:27:16;16.10;;;2.22;;
71969;SDS011;59838;52.152;5.436;2023-05-17T01:29:46;11.82;;;1.70;;
71969;SDS011;59838;52.152;5.436;2023-05-17T01:32:14;19.23;;;2.57;;
71969;SDS011;59838;52.152;5.436;2023-05-17T01:34:41;6.70;;;1.65;;
71969;SDS011;59838;52.152;5.436;2023-05-17T01:37:08;13.73;;;2.40;;
71969;SDS011;59838;52.152;5.436;2023-05-17T01:39:35;8.77;;;2.17;;
71969;SDS011;59838;52.152;5.436;2023-05-17T01:42:04;7.10;;;1.65;;
71969;SDS011;59838;52.152;5.436;2023-05-17T01:44:42;9.43;;;1.50;;
71969;SDS011;59838;52.152;5.436;2023-05-17T01:47:15;5.07;;;1.20;;
71969;SDS011;59838;52.152;5.436;2023-05-17T01:49:51;10.57;;;1.95;;
71969;SDS011;59838;52.152;5.436;2023-05-17T01:52:28;12.20;;;2.50;;
71969;SDS011;59838;52.152;5.436;2023-05-17T01:55:22;9.60;;;1.98;;
71969;SDS011;59838;52.152;5.436;2023-05-17T01:57:55;6.97;;;1.87;;
71969;SDS011;59838;52.152;5.436;2023-05-17T02:00:23;7.57;;;1.90;;
71969;SDS011;59838;52.152;5.436;2023-05-17T02:02:52;14.70;;;2.05;;
71969;SDS011;59838;52.152;5.436;2023-05-17T02:05:19;18.38;;;1.95;;
71969;SDS011;59838;52.152;5.436;2023-05-17T02:07:46;9.02;;;1.35;;
71969;SDS011;59838;52.152;5.436;2023-05-17T02:10:12;8.20;;;1.40;;
71969;SDS011;59838;52.152;5.436;2023-05-17T02:12:39;5.88;;;1.55;;
71969;SDS011;59838;52.152;5.436;2023-05-17T02:15:06;12.52;;;2.00;;
71969;SDS011;59838;52.152;5.436;2023-05-17T02:17:36;8.48;;;2.10;;
71969;SDS011;59838;52.152;5.436;2023-05-17T02:20:05;14.07;;;1.85;;
71969;SDS011;59838;52.152;5.436;2023-05-17T02:22:33;11.33;;;2.00;;
71969;SDS011;59838;52.152;5.436;2023-05-17T02:25:00;11.48;;;2.03;;
71969;SDS011;59838;52.152;5.436;2023-05-17T02:27:27;8.93;;;1.80;;
71969;SDS011;59838;52.152;5.436;2023-05-17T02:29:53;12.70;;;2.15;;
71969;SDS011;59838;52.152;5.436;2023-05-17T02:32:20;15.55;;;2.15;;
71969;SDS011;59838;52.152;5.436;2023-05-17T02:34:46;13.63;;;1.90;;
71969;SDS011;59838;52.152;5.436;2023-05-17T02:37:13;8.48;;;2.13;;
71969;SDS011;59838;52.152;5.436;2023-05-17T02:39:40;7.97;;;1.48;;
71969;SDS011;59838;52.152;5.436;2023-05-17T02:42:06;13.55;;;2.15;;
71969;SDS011;59838;52.152;5.436;2023-05-17T02:44:33;11.05;;;1.65;;
71969;SDS011;59838;52.152;5.436;2023-05-17T02:46:59;5.70;;;1.30;;
71969;SDS011;59838;52.152;5.436;2023-05-17T02:49:26;13.68;;;1.83;;
71969;SDS011;59838;52.152;5.436;2023-05-17T02:51:52;7.53;;;2.10;;
71969;SDS011;59838;52.152;5.436;2023-05-17T02:54:19;7.18;;;1.50;;
71969;SDS011;59838;52.152;5.436;2023-05-17T02:56:45;9.77;;;2.17;;
71969;SDS011;59838;52.152;5.436;2023-05-17T02:59:12;10.57;;;2.20;;
71969;SDS011;59838;52.152;5.436;2023-05-17T03:01:38;13.20;;;2.35;;
71969;SDS011;59838;52.152;5.436;2023-05-17T03:04:05;8.68;;;2.08;;
71969;SDS011;59838;52.152;5.436;2023-05-17T03:06:31;11.85;;;1.90;;
71969;SDS011;59838;52.152;5.436;2023-05-17T03:08:59;10.82;;;2.10;;
71969;SDS011;59838;52.152;5.436;2023-05-17T03:11:26;10.23;;;2.10;;
71969;SDS011;59838;52.152;5.436;2023-05-17T03:13:52;7.90;;;1.77;;
71969;SDS011;59838;52.152;5.436;2023-05-17T03:16:19;11.38;;;2.30;;
71969;SDS011;59838;52.152;5.436;2023-05-17T03:18:45;8.43;;;1.70;;
71969;SDS011;59838;52.152;5.436;2023-05-17T03:21:12;9.35;;;1.90;;
71969;SDS011;59838;52.152;5.436;2023-05-17T03:23:38;14.00;;;2.80;;
71969;SDS011;59838;52.152;5.436;2023-05-17T03:26:05;8.02;;;2.00;;
71969;SDS011;59838;52.152;5.436;2023-05-17T03:28:32;12.45;;;2.03;;
71969;SDS011;59838;52.152;5.436;2023-05-17T03:30:58;13.35;;;2.30;;
71969;SDS011;59838;52.152;5.436;2023-05-17T03:33:25;11.07;;;1.80;;
71969;SDS011;59838;52.152;5.436;2023-05-17T03:35:52;9.00;;;1.60;;
71969;SDS011;59838;52.152;5.436;2023-05-17T03:38:18;8.15;;;1.90;;
71969;SDS011;59838;52.152;5.436;2023-05-17T03:40:45;9.52;;;2.13;;
71969;SDS011;59838;52.152;5.436;2023-05-17T03:43:12;14.02;;;1.90;;
71969;SDS011;59838;52.152;5.436;2023-05-17T03:45:39;8.88;;;1.80;;
71969;SDS011;59838;52.152;5.436;2023-05-17T03:48:06;13.03;;;2.00;;
71969;SDS011;59838;52.152;5.436;2023-05-17T03:50:32;6.90;;;1.80;;
71969;SDS011;59838;52.152;5.436;2023-05-17T03:52:59;9.82;;;1.95;;
71969;SDS011;59838;52.152;5.436;2023-05-17T03:55:25;5.78;;;1.13;;
71969;SDS011;59838;52.152;5.436;2023-05-17T03:57:52;13.98;;;1.65;;
71969;SDS011;59838;52.152;5.436;2023-05-17T04:00:19;5.37;;;1.43;;
71969;SDS011;59838;52.152;5.436;2023-05-17T04:02:47;9.52;;;1.60;;
71969;SDS011;59838;52.152;5.436;2023-05-17T04:05:14;9.90;;;2.15;;
71969;SDS011;59838;52.152;5.436;2023-05-17T04:07:41;7.97;;;2.15;;
71969;SDS011;59838;52.152;5.436;2023-05-17T04:10:08;11.60;;;1.50;;
71969;SDS011;59838;52.152;5.436;2023-05-17T04:12:36;17.17;;;1.93;;
71969;SDS011;59838;52.152;5.436;2023-05-17T04:15:02;10.68;;;1.00;;
71969;SDS011;59838;52.152;5.436;2023-05-17T04:17:30;8.43;;;1.00;;
71969;SDS011;59838;52.152;5.436;2023-05-17T04:19:56;7.70;;;1.17;;
71969;SDS011;59838;52.152;5.436;2023-05-17T04:22:23;4.65;;;0.85;;
71969;SDS011;59838;52.152;5.436;2023-05-17T04:24:49;10.00;;;1.00;;
71969;SDS011;59838;52.152;5.436;2023-05-17T04:27:16;9.80;;;0.98;;
71969;SDS011;59838;52.152;5.436;2023-05-17T04:29:42;9.35;;;0.63;;
71969;SDS011;59838;52.152;5.436;2023-05-17T04:32:09;8.73;;;0.60;;
71969;SDS011;59838;52.152;5.436;2023-05-17T04:34:36;7.28;;;0.70;;
71969;SDS011;59838;52.152;5.436;2023-05-17T04:37:02;10.80;;;0.87;;
71969;SDS011;59838;52.152;5.436;2023-05-17T04:39:29;6.38;;;0.70;;
71969;SDS011;59838;52.152;5.436;2023-05-17T04:41:56;10.18;;;0.88;;
71969;SDS011;59838;52.152;5.436;2023-05-17T04:44:23;9.15;;;1.15;;
71969;SDS011;59838;52.152;5.436;2023-05-17T04:46:49;11.20;;;1.30;;
71969;SDS011;59838;52.152;5.436;2023-05-17T04:49:17;5.13;;;0.63;;
71969;SDS011;59838;52.152;5.436;2023-05-17T04:51:44;5.93;;;0.75;;
71969;SDS011;59838;52.152;5.436;2023-05-17T04:54:10;7.13;;;0.98;;
71969;SDS011;59838;52.152;5.436;2023-05-17T04:56:37;5.90;;;0.77;;
71969;SDS011;59838;52.152;5.436;2023-05-17T04:59:03;7.03;;;1.27;;
71969;SDS011;59838;52.152;5.436;2023-05-17T05:01:30;11.53;;;1.10;;
71969;SDS011;59838;52.152;5.436;2023-05-17T05:03:57;7.43;;;0.90;;
71969;SDS011;59838;52.152;5.436;2023-05-17T05:06:23;7.13;;;0.93;;
71969;SDS011;59838;52.152;5.436;2023-05-17T05:08:50;6.15;;;1.20;;
71969;SDS011;59838;52.152;5.436;2023-05-17T05:11:17;10.25;;;1.63;;
71969;SDS011;59838;52.152;5.436;2023-05-17T05:13:44;7.33;;;0.67;;
71969;SDS011;59838;52.152;5.436;2023-05-17T05:16:10;8.85;;;1.65;;
71969;SDS011;59838;52.152;5.436;2023-05-17T05:18:37;11.20;;;1.77;;
71969;SDS011;59838;52.152;5.436;2023-05-17T05:21:04;10.57;;;1.35;;
71969;SDS011;59838;52.152;5.436;2023-05-17T05:23:30;6.22;;;1.65;;
71969;SDS011;59838;52.152;5.436;2023-05-17T05:25:57;8.47;;;0.80;;
71969;SDS011;59838;52.152;5.436;2023-05-17T05:28:23;6.05;;;1.25;;
71969;SDS011;59838;52.152;5.436;2023-05-17T05:30:55;10.75;;;1.60;;
71969;SDS011;59838;52.152;5.436;2023-05-17T05:33:23;6.97;;;1.17;;
71969;SDS011;59838;52.152;5.436;2023-05-17T05:35:50;3.78;;;0.93;;
71969;SDS011;59838;52.152;5.436;2023-05-17T05:38:16;7.87;;;1.27;;
71969;SDS011;59838;52.152;5.436;2023-05-17T05:40:45;8.57;;;1.05;;
71969;SDS011;59838;52.152;5.436;2023-05-17T05:43:12;9.98;;;1.20;;
71969;SDS011;59838;52.152;5.436;2023-05-17T05:45:38;8.48;;;1.48;;
71969;SDS011;59838;52.152;5.436;2023-05-17T05:48:13;6.28;;;1.05;;
71969;SDS011;59838;52.152;5.436;2023-05-17T05:50:40;5.93;;;1.10;;
71969;SDS011;59838;52.152;5.436;2023-05-17T05:53:10;8.38;;;1.33;;
71969;SDS011;59838;52.152;5.436;2023-05-17T05:55:44;9.82;;;1.48;;
71969;SDS011;59838;52.152;5.436;2023-05-17T05:58:11;7.45;;;1.13;;
71969;SDS011;59838;52.152;5.436;2023-05-17T06:00:38;7.15;;;1.00;;
71969;SDS011;59838;52.152;5.436;2023-05-17T06:03:04;8.17;;;1.07;;
71969;SDS011;59838;52.152;5.436;2023-05-17T06:05:31;5.72;;;0.95;;
71969;SDS011;59838;52.152;5.436;2023-05-17T06:07:58;7.30;;;1.38;;
71969;SDS011;59838;52.152;5.436;2023-05-17T06:10:24;6.50;;;1.00;;
71969;SDS011;59838;52.152;5.436;2023-05-17T06:12:51;5.20;;;0.80;;
71969;SDS011;59838;52.152;5.436;2023-05-17T06:15:18;3.77;;;0.57;;
71969;SDS011;59838;52.152;5.436;2023-05-17T06:17:44;10.10;;;0.82;;
71969;SDS011;59838;52.152;5.436;2023-05-17T06:20:11;4.97;;;0.60;;
71969;SDS011;59838;52.152;5.436;2023-05-17T06:22:38;6.97;;;1.10;;
71969;SDS011;59838;52.152;5.436;2023-05-17T06:25:05;4.80;;;1.10;;
71969;SDS011;59838;52.152;5.436;2023-05-17T06:27:31;7.00;;;1.33;;
71969;SDS011;59838;52.152;5.436;2023-05-17T06:29:58;4.85;;;0.60;;
71969;SDS011;59838;52.152;5.436;2023-05-17T06:32:25;4.90;;;1.25;;
71969;SDS011;59838;52.152;5.436;2023-05-17T06:34:52;6.32;;;1.00;;
71969;SDS011;59838;52.152;5.436;2023-05-17T06:37:19;3.42;;;1.05;;
71969;SDS011;59838;52.152;5.436;2023-05-17T06:39:45;5.93;;;0.87;;
71969;SDS011;59838;52.152;5.436;2023-05-17T06:42:24;6.25;;;0.80;;
71969;SDS011;59838;52.152;5.436;2023-05-17T06:44:51;3.25;;;1.00;;
71969;SDS011;59838;52.152;5.436;2023-05-17T06:47:17;3.40;;;0.55;;
71969;SDS011;59838;52.152;5.436;2023-05-17T06:49:44;3.85;;;0.75;;
71969;SDS011;59838;52.152;5.436;2023-05-17T06:52:10;5.07;;;0.70;;
71969;SDS011;59838;52.152;5.436;2023-05-17T06:54:37;5.63;;;1.00;;
71969;SDS011;59838;52.152;5.436;2023-05-17T06:57:03;5.53;;;0.52;;
71969;SDS011;59838;52.152;5.436;2023-05-17T06:59:30;5.53;;;0.63;;
71969;SDS011;59838;52.152;5.436;2023-05-17T07:01:57;5.60;;;0.90;;
71969;SDS011;59838;52.152;5.436;2023-05-17T07:04:25;6.10;;;0.80;;
71969;SDS011;59838;52.152;5.436;2023-05-17T07:06:52;4.35;;;0.40;;
71969;SDS011;59838;52.152;5.436;2023-05-17T07:09:19;7.82;;;0.80;;
71969;SDS011;59838;52.152;5.436;2023-05-17T07:11:46;7.00;;;0.40;;
71969;SDS011;59838;52.152;5.436;2023-05-17T07:14:13;6.68;;;0.60;;
71969;SDS011;59838;52.152;5.436;2023-05-17T07:16:40;4.47;;;0.50;;
71969;SDS011;59838;52.152;5.436;2023-05-17T07:19:07;5.95;;;0.50;;
71969;SDS011;59838;52.152;5.436;2023-05-17T07:21:33;4.60;;;0.50;;
71969;SDS011;59838;52.152;5.436;2023-05-17T07:24:00;2.50;;;0.52;;
71969;SDS011;59838;52.152;5.436;2023-05-17T07:26:27;3.83;;;0.50;;
71969;SDS011;59838;52.152;5.436;2023-05-17T07:28:54;5.33;;;0.50;;
71969;SDS011;59838;52.152;5.436;2023-05-17T07:31:20;6.57;;;0.80;;
71969;SDS011;59838;52.152;5.436;2023-05-17T07:33:47;4.05;;;0.80;;
71969;SDS011;59838;52.152;5.436;2023-05-17T07:36:14;5.35;;;0.60;;
71969;SDS011;59838;52.152;5.436;2023-05-17T07:38:40;5.28;;;0.75;;
71969;SDS011;59838;52.152;5.436;2023-05-17T07:41:07;2.37;;;0.57;;
71969;SDS011;59838;52.152;5.436;2023-05-17T07:43:35;4.05;;;0.55;;
71969;SDS011;59838;52.152;5.436;2023-05-17T07:46:03;4.15;;;0.45;;
71969;SDS011;59838;52.152;5.436;2023-05-17T07:48:30;2.63;;;0.40;;
71969;SDS011;59838;52.152;5.436;2023-05-17T07:50:57;5.85;;;0.60;;
71969;SDS011;59838;52.152;5.436;2023-05-17T07:53:23;7.10;;;0.90;;
71969;SDS011;59838;52.152;5.436;2023-05-17T07:55:50;4.03;;;0.60;;
71969;SDS011;59838;52.152;5.436;2023-05-17T07:58:17;3.25;;;0.50;;
71969;SDS011;59838;52.152;5.436;2023-05-17T08:00:44;3.95;;;0.57;;
71969;SDS011;59838;52.152;5.436;2023-05-17T08:03:10;4.20;;;0.60;;
71969;SDS011;59838;52.152;5.436;2023-05-17T08:05:40;4.77;;;0.80;;
71969;SDS011;59838;52.152;5.436;2023-05-17T08:08:07;3.30;;;0.70;;
71969;SDS011;59838;52.152;5.436;2023-05-17T08:10:33;4.45;;;0.68;;
71969;SDS011;59838;52.152;5.436;2023-05-17T08:13:04;7.13;;;1.08;;
71969;SDS011;59838;52.152;5.436;2023-05-17T08:15:31;2.85;;;0.75;;
71969;SDS011;59838;52.152;5.436;2023-05-17T08:17:57;3.73;;;0.40;;
71969;SDS011;59838;52.152;5.436;2023-05-17T08:20:30;4.82;;;0.80;;
71969;SDS011;59838;52.152;5.436;2023-05-17T08:22:56;3.22;;;0.60;;
71969;SDS011;59838;52.152;5.436;2023-05-17T08:25:23;5.93;;;0.85;;
71969;SDS011;59838;52.152;5.436;2023-05-17T08:27:49;3.00;;;0.40;;
71969;SDS011;59838;52.152;5.436;2023-05-17T08:30:17;3.30;;;0.30;;
71969;SDS011;59838;52.152;5.436;2023-05-17T08:32:54;5.82;;;0.50;;
71969;SDS011;59838;52.152;5.436;2023-05-17T08:35:21;4.40;;;0.60;;
71969;SDS011;59838;52.152;5.436;2023-05-17T08:37:51;3.05;;;0.28;;
71969;SDS011;59838;52.152;5.436;2023-05-17T08:40:19;6.18;;;0.60;;
71969;SDS011;59838;52.152;5.436;2023-05-17T08:42:47;6.00;;;0.50;;
71969;SDS011;59838;52.152;5.436;2023-05-17T08:45:15;3.38;;;0.32;;
71969;SDS011;59838;52.152;5.436;2023-05-17T08:47:43;4.35;;;0.20;;
71969;SDS011;59838;52.152;5.436;2023-05-17T08:50:11;2.85;;;0.40;;
71969;SDS011;59838;52.152;5.436;2023-05-17T08:52:41;4.15;;;0.40;;
71969;SDS011;59838;52.152;5.436;2023-05-17T08:55:11;4.80;;;0.40;;
71969;SDS011;59838;52.152;5.436;2023-05-17T08:57:41;4.63;;;0.40;;
71969;SDS011;59838;52.152;5.436;2023-05-17T09:00:10;5.72;;;0.57;;
71969;SDS011;59838;52.152;5.436;2023-05-17T09:02:40;4.78;;;0.40;;
71969;SDS011;59838;52.152;5.436;2023-05-17T09:05:08;3.35;;;0.30;;
71969;SDS011;59838;52.152;5.436;2023-05-17T09:07:36;3.97;;;0.40;;
71969;SDS011;59838;52.152;5.436;2023-05-17T09:10:02;3.13;;;0.40;;
71969;SDS011;59838;52.152;5.436;2023-05-17T09:12:31;3.28;;;0.35;;
71969;SDS011;59838;52.152;5.436;2023-05-17T09:15:17;4.40;;;0.40;;
71969;SDS011;59838;52.152;5.436;2023-05-17T09:17:51;4.57;;;1.05;;
71969;SDS011;59838;52.152;5.436;2023-05-17T09:20:26;5.00;;;0.50;;
71969;SDS011;59838;52.152;5.436;2023-05-17T09:23:00;3.00;;;0.32;;
71969;SDS011;59838;52.152;5.436;2023-05-17T09:25:27;3.58;;;0.80;;
71969;SDS011;59838;52.152;5.436;2023-05-17T09:27:54;4.57;;;0.30;;
71969;SDS011;59838;52.152;5.436;2023-05-17T09:30:26;3.67;;;1.20;;
71969;SDS011;59838;52.152;5.436;2023-05-17T09:33:01;2.07;;;0.30;;
71969;SDS011;59838;52.152;5.436;2023-05-17T09:35:33;2.38;;;0.45;;
71969;SDS011;59838;52.152;5.436;2023-05-17T09:38:04;2.20;;;0.30;;
71969;SDS011;59838;52.152;5.436;2023-05-17T09:40:32;3.83;;;0.60;;
71969;SDS011;59838;52.152;5.436;2023-05-17T09:43:03;2.65;;;0.40;;
71969;SDS011;59838;52.152;5.436;2023-05-17T09:45:33;6.20;;;0.20;;
71969;SDS011;59838;52.152;5.436;2023-05-17T09:50:41;5.78;;;0.30;;
71969;SDS011;59838;52.152;5.436;2023-05-17T09:53:28;2.53;;;0.47;;
71969;SDS011;59838;52.152;5.436;2023-05-17T09:55:58;3.35;;;0.30;;
71969;SDS011;59838;52.152;5.436;2023-05-17T09:58:26;4.63;;;0.70;;
71969;SDS011;59838;52.152;5.436;2023-05-17T10:00:57;2.92;;;0.30;;
71969;SDS011;59838;52.152;5.436;2023-05-17T10:03:27;1.95;;;0.30;;
71969;SDS011;59838;52.152;5.436;2023-05-17T10:05:59;4.00;;;0.50;;
71969;SDS011;59838;52.152;5.436;2023-05-17T10:08:27;4.88;;;0.55;;
71969;SDS011;59838;52.152;5.436;2023-05-17T10:10:57;2.90;;;0.20;;
71969;SDS011;59838;52.152;5.436;2023-05-17T10:13:26;4.90;;;0.35;;
71969;SDS011;59838;52.152;5.436;2023-05-17T10:16:05;2.50;;;0.30;;
71969;SDS011;59838;52.152;5.436;2023-05-17T10:18:32;4.95;;;0.60;;
71969;SDS011;59838;52.152;5.436;2023-05-17T10:20:59;2.75;;;0.35;;
71969;SDS011;59838;52.152;5.436;2023-05-17T10:23:27;9.07;;;0.63;;
71969;SDS011;59838;52.152;5.436;2023-05-17T10:25:56;2.78;;;0.40;;
71969;SDS011;59838;52.152;5.436;2023-05-17T10:28:24;3.03;;;0.32;;
71969;SDS011;59838;52.152;5.436;2023-05-17T10:30:52;4.47;;;0.55;;
71969;SDS011;59838;52.152;5.436;2023-05-17T10:33:20;3.50;;;0.43;;
71969;SDS011;59838;52.152;5.436;2023-05-17T10:35:48;3.20;;;0.30;;
71969;SDS011;59838;52.152;5.436;2023-05-17T10:38:15;4.43;;;0.73;;
71969;SDS011;59838;52.152;5.436;2023-05-17T10:40:45;5.20;;;0.40;;
71969;SDS011;59838;52.152;5.436;2023-05-17T10:43:13;3.83;;;0.47;;
71969;SDS011;59838;52.152;5.436;2023-05-17T10:45:40;1.83;;;0.30;;
71969;SDS011;59838;52.152;5.436;2023-05-17T10:48:07;4.37;;;0.50;;
71969;SDS011;59838;52.152;5.436;2023-05-17T10:50:38;5.82;;;0.32;;
71969;SDS011;59838;52.152;5.436;2023-05-17T10:53:19;8.63;;;0.70;;
71969;SDS011;59838;52.152;5.436;2023-05-17T10:55:45;5.03;;;0.40;;
71969;SDS011;59838;52.152;5.436;2023-05-17T10:58:13;5.22;;;0.68;;
71969;SDS011;59838;52.152;5.436;2023-05-17T11:00:43;7.10;;;0.30;;
71969;SDS011;59838;52.152;5.436;2023-05-17T11:03:16;4.40;;;0.40;;
71969;SDS011;59838;52.152;5.436;2023-05-17T11:05:44;6.25;;;0.43;;
71969;SDS011;59838;52.152;5.436;2023-05-17T11:09:05;5.43;;;0.50;;
71969;SDS011;59838;52.152;5.436;2023-05-17T11:11:32;6.60;;;0.55;;
71969;SDS011;59838;52.152;5.436;2023-05-17T11:14:01;3.77;;;0.40;;
71969;SDS011;59838;52.152;5.436;2023-05-17T11:16:36;5.90;;;0.45;;
71969;SDS011;59838;52.152;5.436;2023-05-17T11:19:10;5.55;;;0.40;;
71969;SDS011;59838;52.152;5.436;2023-05-17T11:21:46;4.03;;;0.55;;
71969;SDS011;59838;52.152;5.436;2023-05-17T11:24:15;3.88;;;0.60;;
71969;SDS011;59838;52.152;5.436;2023-05-17T11:26:50;4.97;;;0.30;;
71969;SDS011;59838;52.152;5.436;2023-05-17T11:29:19;5.47;;;0.60;;
71969;SDS011;59838;52.152;5.436;2023-05-17T11:31:50;4.95;;;0.57;;
71969;SDS011;59838;52.152;5.436;2023-05-17T11:34:16;4.03;;;0.85;;
71969;SDS011;59838;52.152;5.436;2023-05-17T11:36:50;6.10;;;0.40;;
71969;SDS011;59838;52.152;5.436;2023-05-17T11:39:19;3.33;;;0.30;;
71969;SDS011;59838;52.152;5.436;2023-05-17T11:41:47;2.28;;;0.40;;
71969;SDS011;59838;52.152;5.436;2023-05-17T11:44:38;4.30;;;0.60;;
71969;SDS011;59838;52.152;5.436;2023-05-17T11:47:04;3.38;;;0.47;;
71969;SDS011;59838;52.152;5.436;2023-05-17T11:49:35;3.30;;;0.40;;
71969;SDS011;59838;52.152;5.436;2023-05-17T11:52:04;4.30;;;0.70;;
71969;SDS011;59838;52.152;5.436;2023-05-17T11:54:31;5.95;;;0.50;;
71969;SDS011;59838;52.152;5.436;2023-05-17T11:56:58;3.20;;;0.40;;
71969;SDS011;59838;52.152;5.436;2023-05-17T11:59:25;6.18;;;0.50;;
71969;SDS011;59838;52.152;5.436;2023-05-17T12:01:52;3.78;;;0.40;;
71969;SDS011;59838;52.152;5.436;2023-05-17T12:04:25;7.30;;;0.40;;
71969;SDS011;59838;52.152;5.436;2023-05-17T12:06:53;7.93;;;0.50;;
71969;SDS011;59838;52.152;5.436;2023-05-17T12:09:21;8.65;;;0.82;;
71969;SDS011;59838;52.152;5.436;2023-05-17T12:11:48;4.95;;;0.43;;
71969;SDS011;59838;52.152;5.436;2023-05-17T12:14:18;3.92;;;0.50;;
71969;SDS011;59838;52.152;5.436;2023-05-17T12:16:51;2.43;;;0.40;;
71969;SDS011;59838;52.152;5.436;2023-05-17T12:19:23;6.85;;;0.50;;
71969;SDS011;59838;52.152;5.436;2023-05-17T12:22:04;5.53;;;0.40;;
71969;SDS011;59838;52.152;5.436;2023-05-17T12:24:41;4.38;;;0.90;;
71969;SDS011;59838;52.152;5.436;2023-05-17T12:27:08;5.70;;;0.60;;
71969;SDS011;59838;52.152;5.436;2023-05-17T12:29:35;4.60;;;0.60;;
71969;SDS011;59838;52.152;5.436;2023-05-17T12:32:04;4.03;;;0.40;;
71969;SDS011;59838;52.152;5.436;2023-05-17T12:34:31;8.18;;;1.02;;
71969;SDS011;59838;52.152;5.436;2023-05-17T12:36:58;5.22;;;0.75;;
71969;SDS011;59838;52.152;5.436;2023-05-17T12:39:24;3.55;;;0.68;;
71969;SDS011;59838;52.152;5.436;2023-05-17T12:41:51;7.80;;;0.60;;
71969;SDS011;59838;52.152;5.436;2023-05-17T12:44:19;4.85;;;0.52;;
71969;SDS011;59838;52.152;5.436;2023-05-17T12:46:49;5.78;;;0.60;;
71969;SDS011;59838;52.152;5.436;2023-05-17T12:49:19;4.45;;;0.50;;
71969;SDS011;59838;52.152;5.436;2023-05-17T12:51:48;8.50;;;0.70;;
71969;SDS011;59838;52.152;5.436;2023-05-17T12:56:52;3.47;;;0.38;;
71969;SDS011;59838;52.152;5.436;2023-05-17T12:59:20;7.22;;;0.43;;
71969;SDS011;59838;52.152;5.436;2023-05-17T13:01:54;3.28;;;0.40;;
71969;SDS011;59838;52.152;5.436;2023-05-17T13:04:34;6.32;;;0.30;;
71969;SDS011;59838;52.152;5.436;2023-05-17T13:07:03;2.77;;;0.50;;
71969;SDS011;59838;52.152;5.436;2023-05-17T13:09:31;4.20;;;0.60;;
71969;SDS011;59838;52.152;5.436;2023-05-17T13:11:59;7.90;;;1.27;;
71969;SDS011;59838;52.152;5.436;2023-05-17T13:17:03;8.27;;;0.40;;
71969;SDS011;59838;52.152;5.436;2023-05-17T13:19:31;6.40;;;0.50;;
71969;SDS011;59838;52.152;5.436;2023-05-17T13:21:58;7.35;;;0.50;;
71969;SDS011;59838;52.152;5.436;2023-05-17T13:24:25;6.13;;;0.65;;
71969;SDS011;59838;52.152;5.436;2023-05-17T13:26:53;5.53;;;0.85;;
71969;SDS011;59838;52.152;5.436;2023-05-17T13:29:19;5.22;;;0.55;;
71969;SDS011;59838;52.152;5.436;2023-05-17T13:32:05;7.30;;;0.83;;
71969;SDS011;59838;52.152;5.436;2023-05-17T13:34:32;3.70;;;0.35;;
71969;SDS011;59838;52.152;5.436;2023-05-17T13:36:59;3.92;;;0.50;;
71969;SDS011;59838;52.152;5.436;2023-05-17T13:39:25;4.78;;;0.35;;
71969;SDS011;59838;52.152;5.436;2023-05-17T13:41:52;4.47;;;0.73;;
71969;SDS011;59838;52.152;5.436;2023-05-17T13:44:19;17.47;;;1.00;;
71969;SDS011;59838;52.152;5.436;2023-05-17T13:46:45;6.80;;;0.70;;
71969;SDS011;59838;52.152;5.436;2023-05-17T13:49:12;2.72;;;0.50;;
71969;SDS011;59838;52.152;5.436;2023-05-17T13:51:39;5.57;;;0.60;;
71969;SDS011;59838;52.152;5.436;2023-05-17T13:54:05;4.88;;;0.68;;
71969;SDS011;59838;52.152;5.436;2023-05-17T13:56:32;4.07;;;0.60;;
71969;SDS011;59838;52.152;5.436;2023-05-17T13:58:59;5.50;;;0.65;;
71969;SDS011;59838;52.152;5.436;2023-05-17T14:01:26;3.95;;;0.90;;
71969;SDS011;59838;52.152;5.436;2023-05-17T14:03:52;2.97;;;0.70;;
71969;SDS011;59838;52.152;5.436;2023-05-17T14:06:20;4.85;;;0.50;;
71969;SDS011;59838;52.152;5.436;2023-05-17T14:08:47;4.60;;;0.50;;
71969;SDS011;59838;52.152;5.436;2023-05-17T14:11:14;6.53;;;0.50;;
71969;SDS011;59838;52.152;5.436;2023-05-17T14:13:41;6.13;;;0.40;;
71969;SDS011;59838;52.152;5.436;2023-05-17T14:16:08;3.65;;;0.40;;
71969;SDS011;59838;52.152;5.436;2023-05-17T14:18:35;7.15;;;1.05;;
71969;SDS011;59838;52.152;5.436;2023-05-17T14:21:02;5.33;;;0.60;;
71969;SDS011;59838;52.152;5.436;2023-05-17T14:23:29;3.80;;;0.50;;
71969;SDS011;59838;52.152;5.436;2023-05-17T14:25:55;4.35;;;0.40;;
71969;SDS011;59838;52.152;5.436;2023-05-17T14:28:22;3.65;;;0.43;;
71969;SDS011;59838;52.152;5.436;2023-05-17T14:30:49;4.85;;;0.60;;
71969;SDS011;59838;52.152;5.436;2023-05-17T14:33:16;6.70;;;0.50;;
71969;SDS011;59838;52.152;5.436;2023-05-17T14:35:43;5.55;;;0.60;;
71969;SDS011;59838;52.152;5.436;2023-05-17T14:38:10;4.05;;;0.32;;
71969;SDS011;59838;52.152;5.436;2023-05-17T14:40:36;7.13;;;0.60;;
71969;SDS011;59838;52.152;5.436;2023-05-17T14:43:03;4.25;;;0.77;;
71969;SDS011;59838;52.152;5.436;2023-05-17T14:45:30;5.10;;;0.40;;
71969;SDS011;59838;52.152;5.436;2023-05-17T14:47:56;2.88;;;0.70;;
71969;SDS011;59838;52.152;5.436;2023-05-17T14:50:23;3.45;;;0.55;;
71969;SDS011;59838;52.152;5.436;2023-05-17T14:52:50;9.90;;;0.95;;
71969;SDS011;59838;52.152;5.436;2023-05-17T14:55:16;7.28;;;0.80;;
71969;SDS011;59838;52.152;5.436;2023-05-17T14:57:43;10.80;;;0.57;;
71969;SDS011;59838;52.152;5.436;2023-05-17T15:00:09;6.47;;;0.50;;
71969;SDS011;59838;52.152;5.436;2023-05-17T15:02:37;3.03;;;0.82;;
71969;SDS011;59838;52.152;5.436;2023-05-17T15:05:03;3.03;;;0.38;;
71969;SDS011;59838;52.152;5.436;2023-05-17T15:07:30;2.55;;;0.85;;